Time;durP1;ratioP1;P1;durP2;ratioP2;P2;SDS_P1;SDS_P2;PMS_P1;PMS_P2;Temp;Humidity;BMP_temperature;BMP_pressure;BME280_temperature;BME280_humidity;BME280_pressure;Samples;Min_cycle;Max_cycle;Signal;HPM_P1;HPM_P2
2022/04/29 00:00:39;;;;;;;6.85;1.85;;;;;;;6.39;65.42;99815.44;5095870;28;20113;-75
2022/04/29 00:03:07;;;;;;;1.30;1.20;;;;;;;6.37;65.72;99819.97;5077756;28;20097;-76
2022/04/29 00:05:34;;;;;;;2.35;1.55;;;;;;;6.34;65.72;99822.81;5094939;28;20040;-75
2022/04/29 00:08:05;;;;;;;1.63;1.52;;;;;;;6.28;65.93;99821.34;5095675;28;20487;-76
2022/04/29 00:10:32;;;;;;;1.65;1.55;;;;;;;6.13;66.27;99826.63;5095793;28;20102;-75
2022/04/29 00:12:59;;;;;;;1.70;1.60;;;;;;;6.16;66.40;99837.91;5094478;28;20044;-76
2022/04/29 00:15:26;;;;;;;3.58;1.80;;;;;;;6.15;66.32;99832.72;5077471;28;20048;-75
2022/04/29 00:17:52;;;;;;;6.97;1.80;;;;;;;6.16;66.16;99842.38;5077660;28;20130;-75
2022/04/29 00:20:18;;;;;;;4.32;1.77;;;;;;;6.11;66.33;99847.09;5094403;28;20086;-74
2022/04/29 00:22:44;;;;;;;3.13;2.00;;;;;;;6.19;65.98;99839.56;5077571;28;20048;-76
2022/04/29 00:25:11;;;;;;;1.83;1.70;;;;;;;6.11;66.13;99833.81;5095403;28;20449;-75
2022/04/29 00:27:39;;;;;;;2.92;1.90;;;;;;;6.06;66.56;99845.53;5077314;28;20414;-76
2022/04/29 00:30:10;;;;;;;3.65;2.00;;;;;;;6.15;66.13;99838.03;5095286;28;20134;-76
2022/04/29 00:32:38;;;;;;;1.75;1.65;;;;;;;6.06;66.27;99850.84;5077242;28;20097;-76
2022/04/29 00:35:07;;;;;;;1.58;1.48;;;;;;;6.12;66.22;99851.44;5060549;28;20044;-76
2022/04/29 00:37:42;;;;;;;1.85;1.65;;;;;;;6.03;66.19;99851.00;5077385;28;20071;-75
2022/04/29 00:40:15;;;;;;;1.60;1.50;;;;;;;6.01;66.17;99847.56;5077061;28;20048;-75
2022/04/29 00:42:41;;;;;;;3.25;1.73;;;;;;;6.00;66.47;99840.56;5094010;28;20051;-75
2022/04/29 00:45:07;;;;;;;1.70;1.60;;;;;;;5.98;65.79;99845.09;5076943;28;20058;-76
2022/04/29 00:47:33;;;;;;;1.77;1.50;;;;;;;5.97;65.53;99856.63;5077082;28;20495;-75
2022/04/29 00:49:59;;;;;;;4.82;1.67;;;;;;;5.98;66.06;99863.66;5060155;28;20036;-76
2022/04/29 00:52:26;;;;;;;1.70;1.60;;;;;;;5.82;66.38;99852.09;5094897;28;20559;-76
2022/04/29 00:55:02;;;;;;;1.50;1.40;;;;;;;5.73;66.24;99839.31;5060141;28;20074;-75
2022/04/29 00:57:37;;;;;;;1.98;1.23;;;;;;;5.82;66.07;99852.09;5077188;28;20395;-77
2022/04/29 01:00:08;;;;;;;2.35;1.60;;;;;;;5.81;66.20;99861.00;5093702;28;20406;-77
2022/04/29 01:02:41;;;;;;;1.60;1.50;;;;;;;5.71;66.68;99844.69;5060071;28;20143;-77
2022/04/29 01:05:11;;;;;;;1.20;1.10;;;;;;;5.68;66.75;99849.31;5076492;28;20052;-76
2022/04/29 01:07:39;;;;;;;2.20;1.33;;;;;;;5.57;67.33;99842.78;5075582;28;20459;-77
2022/04/29 01:10:06;;;;;;;1.48;1.38;;;;;;;5.40;67.65;99845.41;5076866;28;20078;-75
2022/04/29 01:12:36;;;;;;;1.45;1.35;;;;;;;5.49;67.09;99854.69;5094700;28;20055;-76
2022/04/29 01:15:03;;;;;;;;;;;;;;;5.47;67.56;99860.09;5093805;28;20056;-75
2022/04/29 01:17:30;;;;;;;1.48;1.38;;;;;;;5.45;67.42;99854.00;5093211;28;19978;-77
2022/04/29 01:20:04;;;;;;;1.48;1.38;;;;;;;5.30;68.13;99860.06;5076119;28;20044;-77
2022/04/29 01:22:31;;;;;;;3.05;1.50;;;;;;;5.28;67.76;99846.06;5076330;28;20055;-76
2022/04/29 01:24:57;;;;;;;1.50;1.40;;;;;;;5.29;67.48;99853.06;5093173;28;20046;-76
2022/04/29 01:27:23;;;;;;;6.60;1.58;;;;;;;5.17;67.43;99843.06;5076180;28;20611;-76
2022/04/29 01:30:02;;;;;;;1.65;1.55;;;;;;;5.18;67.83;99858.88;5076198;28;20134;-75
2022/04/29 01:32:34;;;;;;;1.45;1.35;;;;;;;5.14;67.88;99859.97;5076313;28;20043;-76
2022/04/29 01:35:01;;;;;;;2.72;1.38;;;;;;;5.05;68.27;99861.28;5075759;28;20238;-77
2022/04/29 01:37:30;;;;;;;1.45;1.35;;;;;;;5.07;67.96;99869.16;5076179;28;20040;-76
2022/04/29 01:39:56;;;;;;;1.83;1.58;;;;;;;4.99;68.30;99861.59;5075814;28;20136;-76
2022/04/29 01:42:23;;;;;;;1.40;1.40;;;;;;;5.13;67.70;99850.31;5059148;28;20436;-76
2022/04/29 01:44:49;;;;;;;1.63;1.52;;;;;;;5.13;68.12;99868.00;5042447;28;20048;-75
2022/04/29 01:47:15;;;;;;;1.52;1.40;;;;;;;5.08;67.97;99863.81;5075729;28;20075;-75
2022/04/29 01:50:07;;;;;;;1.63;1.50;;;;;;;5.01;68.02;99872.97;5075614;28;20043;-75
2022/04/29 01:52:33;;;;;;;1.48;1.38;;;;;;;5.09;67.96;99878.75;5058764;28;20050;-75
2022/04/29 01:54:59;;;;;;;1.55;1.45;;;;;;;5.12;67.91;99872.47;5075574;28;20123;-77
2022/04/29 01:57:29;;;;;;;1.80;1.70;;;;;;;5.08;67.84;99892.94;5092290;28;20529;-76
2022/04/29 01:59:55;;;;;;;5.53;1.73;;;;;;;5.20;67.89;99880.88;5075386;28;20071;-76
2022/04/29 02:02:41;;;;;;;3.13;1.63;;;;;;;5.14;67.69;99869.72;5078559;28;20051;-76
2022/04/29 02:05:07;;;;;;;1.70;1.50;;;;;;;5.21;67.48;99881.75;5058701;28;20051;-76
2022/04/29 02:07:34;;;;;;;2.40;1.50;;;;;;;5.20;67.60;99891.50;5075486;28;20462;-76
2022/04/29 02:10:01;;;;;;;1.90;1.80;;;;;;;5.26;67.54;99885.00;5059057;28;20514;-77
2022/04/29 02:12:30;;;;;;;1.90;1.70;;;;;;;5.31;67.25;99893.63;5059280;28;20449;-75
2022/04/29 02:14:58;;;;;;;2.03;1.73;;;;;;;5.31;67.29;99888.31;5092881;28;20100;-76
2022/04/29 02:17:35;;;;;;;5.63;1.65;;;;;;;5.10;68.03;99871.66;5075030;28;20043;-76
2022/04/29 02:20:00;;;;;;;2.03;1.60;;;;;;;5.32;67.65;99879.41;5074970;28;20051;-77
2022/04/29 02:22:27;;;;;;;3.03;1.98;;;;;;;5.40;67.21;99893.16;5058137;28;20039;-76
2022/04/29 02:24:53;;;;;;;1.95;1.45;;;;;;;5.32;67.27;99882.06;5075058;28;20044;-75
2022/04/29 02:27:19;;;;;;;5.57;1.75;;;;;;;5.35;67.02;99863.38;5092909;28;20040;-75
2022/04/29 02:29:45;;;;;;;2.33;1.65;;;;;;;5.51;66.67;99892.59;5075069;28;20036;-75
2022/04/29 02:32:16;;;;;;;1.58;1.48;;;;;;;5.46;66.53;99892.00;5074891;28;20055;-77
2022/04/29 02:34:42;;;;;;;1.52;1.30;;;;;;;5.46;66.79;99899.94;5057763;28;20036;-77
2022/04/29 02:37:10;;;;;;;1.70;1.60;;;;;;;5.47;66.81;99905.16;5057962;28;20040;-76
2022/04/29 02:39:37;;;;;;;1.80;1.70;;;;;;;5.52;66.64;99908.44;5074411;28;20044;-77
2022/04/29 02:42:06;;;;;;;2.35;1.83;;;;;;;5.53;66.03;99904.00;5074489;28;20044;-77
2022/04/29 02:44:33;;;;;;;4.18;1.63;;;;;;;5.44;66.45;99907.97;5079294;28;20039;-75
2022/04/29 02:47:08;;;;;;;9.02;1.90;;;;;;;5.53;66.56;99915.47;5087568;28;20510;-75
2022/04/29 02:49:41;;;;;;;1.60;1.50;;;;;;;5.67;66.49;99906.78;5077504;28;20036;-75
2022/04/29 02:52:09;;;;;;;5.95;1.65;;;;;;;5.56;66.52;99903.84;5077983;28;20172;-75
2022/04/29 02:54:35;;;;;;;2.95;1.73;;;;;;;5.60;66.09;99894.78;5094788;28;20043;-76
2022/04/29 02:57:05;;;;;;;4.60;1.77;;;;;;;5.76;65.76;99900.19;5060687;28;20134;-76
2022/04/29 02:59:35;;;;;;;6.20;1.70;;;;;;;5.83;65.74;99896.28;5094779;28;20126;-78
2022/04/29 03:02:01;;;;;;;13.40;1.83;;;;;;;5.75;65.78;99882.53;5094498;28;20056;-76
2022/04/29 03:04:27;;;;;;;1.63;1.52;;;;;;;5.92;65.10;99894.94;5111589;28;20039;-77
2022/04/29 03:06:53;;;;;;;1.60;1.50;;;;;;;5.97;64.93;99880.50;5113125;28;20158;-76
2022/04/29 03:09:20;;;;;;;2.20;1.40;;;;;;;5.91;64.89;99904.69;5112827;28;20040;-76
2022/04/29 03:11:48;;;;;;;5.57;1.80;;;;;;;5.94;64.88;99909.88;5095099;28;20040;-76
2022/04/29 03:14:15;;;;;;;2.65;1.38;;;;;;;5.91;65.17;99909.16;5077161;28;20063;-78
2022/04/29 03:16:42;;;;;;;1.67;1.58;;;;;;;5.85;65.37;99910.31;5078375;28;20051;-79
2022/04/29 03:19:08;;;;;;;3.55;1.52;;;;;;;5.86;65.17;99912.03;5095128;28;20051;-83
2022/04/29 03:21:35;;;;;;;3.00;1.73;;;;;;;5.98;65.15;99905.25;5095012;28;20075;-83
2022/04/29 03:24:01;;;;;;;4.13;1.63;;;;;;;6.48;69.64;99915.84;5077876;28;20039;-80
2022/04/29 03:26:28;;;;;;;2.35;1.88;;;;;;;6.71;65.76;99916.41;5094903;28;20518;-80
2022/04/29 03:28:54;;;;;;;5.10;1.77;;;;;;;6.77;64.08;99910.72;5094649;28;20078;-80
2022/04/29 03:31:19;;;;;;;1.95;1.58;;;;;;;6.87;63.33;99922.56;5098130;28;20035;-84
2022/04/29 03:34:11;;;;;;;2.00;1.80;;;;;;;6.86;62.51;99915.56;5113577;28;20051;-79
2022/04/29 03:36:37;;;;;;;10.45;2.35;;;;;;;6.82;62.45;99917.53;5081099;28;20039;-85
2022/04/29 03:39:03;;;;;;;2.20;2.00;;;;;;;6.75;62.74;99916.13;5098120;28;20122;-78
2022/04/29 03:41:31;;;;;;;3.53;2.00;;;;;;;6.76;62.77;99917.00;5098071;28;20047;-78
2022/04/29 03:44:00;;;;;;;3.42;2.20;;;;;;;6.79;62.49;99925.66;5098169;28;20054;-79
2022/04/29 03:46:31;;;;;;;1.92;1.83;;;;;;;6.81;62.06;99926.44;5097681;28;20147;-81
2022/04/29 03:51:53;;;;;;;3.80;2.00;;;;;;;7.09;62.53;99921.38;5098086;28;20520;-78
2022/04/29 03:54:20;;;;;;;5.30;2.08;;;;;;;7.10;61.96;99928.41;5098436;28;20043;-80
2022/04/29 03:56:59;;;;;;;12.10;1.92;;;;;;;7.19;61.82;99918.13;5083011;28;20040;-81
2022/04/29 03:59:28;;;;;;;2.00;1.70;;;;;;;7.16;61.88;99920.94;5081902;28;20047;-80
2022/04/29 04:01:54;;;;;;;2.83;1.80;;;;;;;7.19;61.93;99935.88;5098127;28;20105;-79
2022/04/29 04:04:20;;;;;;;2.28;1.65;;;;;;;7.25;61.56;99919.56;5097059;28;20510;-75
2022/04/29 04:06:49;;;;;;;2.58;1.52;;;;;;;7.41;61.32;99936.38;5088976;28;20101;-77
2022/04/29 04:09:18;;;;;;;1.70;1.60;;;;;;;7.45;60.66;99953.88;5061014;28;20119;-77
2022/04/29 04:11:44;;;;;;;5.28;1.90;;;;;;;7.37;61.07;99934.84;5077408;28;20044;-77
2022/04/29 04:14:13;;;;;;;;;;;;;;;7.37;61.52;99933.94;5077370;28;20091;-76
2022/04/29 04:16:45;;;;;;;2.85;1.95;;;;;;;7.44;61.94;99930.84;5086807;28;19977;-76
2022/04/29 04:19:11;;;;;;;1.75;1.55;;;;;;;7.63;61.09;99938.63;5090144;28;20465;-76
2022/04/29 04:21:37;;;;;;;3.45;1.75;;;;;;;7.70;60.63;99923.16;5096169;28;20074;-77
2022/04/29 04:24:05;;;;;;;1.70;1.58;;;;;;;7.90;60.41;99941.47;5077172;28;20090;-76
2022/04/29 04:26:32;;;;;;;2.90;1.63;;;;;;;7.88;60.66;99938.03;5076940;28;20047;-76
2022/04/29 04:29:01;;;;;;;;;;;;;;;7.94;60.90;99953.66;5065896;28;20538;-76
2022/04/29 04:31:35;;;;;;;2.80;1.55;;;;;;;8.06;59.53;99951.22;5079902;28;19922;-76
2022/04/29 04:34:49;;;;;;;2.72;1.42;;;;;;;8.01;59.91;99944.34;5097289;28;20410;-77
2022/04/29 04:36:53;;;;;;;4.50;1.70;;;;;;;8.21;59.47;99940.47;5097346;28;20092;-76
2022/04/29 04:39:22;;;;;;;10.07;1.55;;;;;;;8.46;58.37;99949.66;5097027;28;20088;-76
2022/04/29 04:41:51;;;;;;;12.02;2.88;;;;;;;8.62;57.63;99939.78;5096829;28;20047;-77
2022/04/29 04:44:24;;;;;;;1.63;1.50;;;;;;;8.68;56.98;99938.53;5097126;28;20067;-74
2022/04/29 04:46:50;;;;;;;1.52;1.30;;;;;;;8.91;56.37;99945.06;5096821;28;20075;-77
2022/04/29 04:49:39;;;;;;;2.17;1.38;;;;;;;8.87;56.54;99944.41;5106603;28;20051;-77
2022/04/29 04:52:17;;;;;;;2.17;1.60;;;;;;;9.21;57.19;99947.56;5081828;28;20473;-78
2022/04/29 04:54:43;;;;;;;6.85;2.00;;;;;;;9.65;56.00;99938.47;5096952;28;20135;-79
2022/04/29 04:57:10;;;;;;;2.20;1.40;;;;;;;9.83;54.17;99942.59;5096885;28;20094;-80
2022/04/29 04:59:36;;;;;;;2.10;1.60;;;;;;;9.86;54.68;99950.41;5090002;28;20036;-76
2022/04/29 05:02:03;;;;;;;3.05;1.50;;;;;;;9.88;54.63;99952.94;5081051;28;20115;-78
2022/04/29 05:04:57;;;;;;;2.75;1.20;;;;;;;9.41;53.92;99944.47;5059828;28;20117;-77
2022/04/29 05:07:43;;;;;;;1.90;1.50;;;;;;;9.20;54.68;99945.88;5097226;28;20043;-77
2022/04/29 05:10:12;;;;;;;1.10;1.10;;;;;;;9.06;55.38;99951.22;5079896;28;20039;-78
2022/04/29 05:12:43;;;;;;;4.07;1.45;;;;;;;8.99;55.81;99954.31;5079410;28;20096;-78
2022/04/29 05:15:25;;;;;;;3.67;1.42;;;;;;;8.90;56.12;99952.22;5081916;28;21052;-81
2022/04/29 05:17:52;;;;;;;7.43;1.50;;;;;;;8.80;56.20;99960.88;5096000;28;20529;-80
2022/04/29 05:20:38;;;;;;;2.20;1.40;;;;;;;9.06;56.04;99948.56;5107273;28;20043;-77
2022/04/29 05:23:04;;;;;;;2.67;1.42;;;;;;;9.39;55.33;99957.06;5096375;28;20043;-78
2022/04/29 05:25:38;;;;;;;1.80;1.20;;;;;;;9.46;54.16;99942.34;5080659;28;20058;-78
2022/04/29 05:28:23;;;;;;;1.48;1.30;;;;;;;9.88;52.66;99959.13;5115049;28;20051;-79
2022/04/29 05:31:07;;;;;;;4.43;1.23;;;;;;;10.13;52.63;99944.13;5099238;28;20043;-80
2022/04/29 05:33:55;;;;;;;2.47;1.20;;;;;;;10.22;51.98;99952.34;5094648;28;20399;-78
2022/04/29 05:37:01;;;;;;;1.15;1.10;;;;;;;9.93;51.35;99945.50;5072048;28;20048;-79
2022/04/29 05:42:41;;;;;;;2.65;1.33;;;;;;;9.77;51.99;99951.00;5054930;28;20064;-80
2022/04/29 05:45:08;;;;;;;1.30;1.27;;;;;;;9.65;52.11;99951.81;5054618;28;20159;-79
2022/04/29 05:47:35;;;;;;;4.45;1.33;;;;;;;9.77;51.60;99951.00;5037886;28;20102;-79
2022/04/29 05:50:01;;;;;;;6.13;1.60;;;;;;;9.64;51.54;99942.09;5071261;28;20407;-78
2022/04/29 05:52:31;;;;;;;1.42;1.30;;;;;;;9.64;51.69;99934.09;5055219;28;20073;-79
2022/04/29 05:54:56;;;;;;;1.40;1.20;;;;;;;9.82;51.23;99948.88;5055578;28;20575;-78
2022/04/29 05:57:29;;;;;;;2.72;1.40;;;;;;;9.98;50.55;99938.88;5054622;28;20040;-78
2022/04/29 05:59:56;;;;;;;4.03;1.42;;;;;;;10.07;50.10;99942.72;5054412;28;20048;-79
2022/04/29 06:02:41;;;;;;;7.00;1.73;;;;;;;10.07;50.37;99942.72;5070537;28;20522;-86
2022/04/29 06:05:09;;;;;;;10.40;1.60;;;;;;;10.17;50.43;99949.16;5079194;28;20104;-79
2022/04/29 06:07:36;;;;;;;1.73;1.10;;;;;;;10.63;50.00;99939.78;5057608;28;20075;-77
2022/04/29 06:10:05;;;;;;;7.15;1.33;;;;;;;11.09;49.27;99934.66;5074158;28;20048;-79
2022/04/29 06:12:37;;;;;;;;;;;;;;;11.13;47.09;99948.66;5074529;28;20442;-79
2022/04/29 06:15:05;;;;;;;3.78;1.13;;;;;;;11.12;47.47;99941.59;5091110;28;19997;-80
2022/04/29 06:18:06;;;;;;;1.42;1.30;;;;;;;11.08;47.21;99937.44;5030647;28;20051;-79
2022/04/29 06:20:44;;;;;;;1.02;1.02;;;;;;;11.15;45.91;99944.06;5093595;28;20078;-79
2022/04/29 06:23:49;;;;;;;2.20;1.10;;;;;;;11.27;46.21;99937.81;5097494;28;20047;-77
2022/04/29 06:26:15;;;;;;;9.20;1.35;;;;;;;11.26;45.33;99938.78;5113183;28;20047;-77
2022/04/29 06:28:42;;;;;;;1.67;1.30;;;;;;;11.22;45.43;99945.34;5095596;28;20055;-76
2022/04/29 06:31:08;;;;;;;4.68;1.38;;;;;;;11.47;46.62;99930.13;5076773;28;20047;-78
2022/04/29 06:33:52;;;;;;;3.75;1.40;;;;;;;11.61;45.09;99949.53;5092392;28;20071;-80
2022/04/29 06:36:19;;;;;;;6.28;1.50;;;;;;;11.57;45.81;99941.88;5074487;28;20042;-77
2022/04/29 06:38:50;;;;;;;3.67;1.33;;;;;;;11.66;44.76;99955.44;5057674;28;20047;-77
2022/04/29 06:41:48;;;;;;;1.37;1.27;;;;;;;11.29;45.08;99951.94;5029525;28;20067;-77
2022/04/29 06:44:40;;;;;;;0.98;0.98;;;;;;;11.19;44.80;99948.22;5061171;28;20051;-76
2022/04/29 06:47:30;;;;;;;1.30;1.20;;;;;;;11.23;45.39;99955.06;5068176;28;20580;-81
2022/04/29 06:50:14;;;;;;;1.83;1.45;;;;;;;11.16;45.93;99965.34;5077497;28;20055;-79
2022/04/29 06:52:59;;;;;;;3.47;1.40;;;;;;;11.09;46.11;99952.53;5092166;28;20105;-80
2022/04/29 06:55:30;;;;;;;3.13;1.92;;;;;;;11.24;46.36;99948.72;5041749;28;20043;-78
2022/04/29 06:57:56;;;;;;;5.43;1.40;;;;;;;11.03;45.83;99942.28;5040819;28;20078;-86
2022/04/29 07:00:22;;;;;;;2.70;1.20;;;;;;;10.95;45.76;99958.91;5040892;28;20043;-76
2022/04/29 07:02:52;;;;;;;2.95;1.13;;;;;;;10.94;46.52;99960.72;5074237;28;20054;-77
2022/04/29 07:05:19;;;;;;;3.05;1.20;;;;;;;11.21;45.70;99957.00;5076032;28;20074;-77
2022/04/29 07:07:49;;;;;;;4.35;1.20;;;;;;;11.31;45.82;99923.22;5078278;28;20059;-77
2022/04/29 07:10:37;;;;;;;1.50;1.17;;;;;;;11.67;44.60;99949.09;5077271;28;20036;-80
2022/04/29 07:13:31;;;;;;;2.33;1.20;;;;;;;11.74;45.18;99944.16;5079562;28;20040;-78
2022/04/29 07:15:57;;;;;;;4.63;1.45;;;;;;;11.99;43.59;99951.19;5076612;28;20080;-79
2022/04/29 07:18:46;;;;;;;1.42;1.30;;;;;;;11.88;43.30;99949.34;5067840;28;20139;-79
2022/04/29 07:21:14;;;;;;;0.88;0.88;;;;;;;12.13;44.00;99939.44;5074907;28;20048;-76
2022/04/29 07:23:43;;;;;;;7.72;1.40;;;;;;;12.44;43.23;99937.03;5074747;28;20067;-86
2022/04/29 07:26:11;;;;;;;2.28;1.30;;;;;;;12.30;42.55;99925.59;5041444;28;20033;-77
2022/04/29 07:28:36;;;;;;;4.05;1.40;;;;;;;12.20;43.11;99929.94;5056977;28;20090;-77
2022/04/29 07:31:03;;;;;;;2.88;1.48;;;;;;;12.32;42.70;99939.69;5074683;28;20041;-77
2022/04/29 07:33:49;;;;;;;3.88;1.30;;;;;;;12.25;43.66;99933.09;5074248;28;20052;-78
2022/04/29 07:42:16;;;;;;;3.00;1.42;;;;;;;12.16;42.82;99936.50;5057178;28;20090;-78
2022/04/29 07:44:42;;;;;;;3.10;1.40;;;;;;;12.42;42.50;99950.56;5057102;28;20178;-77
2022/04/29 07:47:12;;;;;;;4.18;1.63;;;;;;;12.27;41.91;99949.94;5058048;28;20051;-79
2022/04/29 07:49:39;;;;;;;2.70;1.40;;;;;;;12.31;41.99;99938.00;5075376;28;20044;-83
2022/04/29 07:52:05;;;;;;;10.52;1.40;;;;;;;12.19;42.17;99949.69;5040609;28;20364;-79
2022/04/29 07:54:34;;;;;;;8.25;1.33;;;;;;;12.07;42.55;99955.97;5071616;28;20503;-80
2022/04/29 07:57:00;;;;;;;6.05;1.40;;;;;;;12.29;43.18;99945.28;5083747;28;20535;-79
2022/04/29 07:59:27;;;;;;;5.07;1.60;;;;;;;12.62;42.83;99946.31;5076903;28;20169;-77
2022/04/29 08:02:12;;;;;;;7.28;1.55;;;;;;;12.99;41.62;99946.09;5055354;28;20043;-78
2022/04/29 08:04:38;;;;;;;1.80;1.38;;;;;;;12.76;40.39;99938.03;5110627;28;20032;-79
2022/04/29 08:07:04;;;;;;;4.07;1.40;;;;;;;12.64;40.71;99944.38;5094162;28;20495;-79
2022/04/29 08:09:31;;;;;;;3.20;1.30;;;;;;;12.48;41.12;99950.06;5094158;28;20580;-78
2022/04/29 08:11:57;;;;;;;2.58;1.63;;;;;;;12.54;41.02;99954.13;5094222;28;20047;-78
2022/04/29 08:14:27;;;;;;;11.70;1.88;;;;;;;12.55;40.83;99945.94;5099526;28;20047;-77
2022/04/29 08:17:12;;;;;;;2.13;1.40;;;;;;;12.72;40.24;99946.47;5114247;28;20144;-78
2022/04/29 08:19:43;;;;;;;1.50;1.40;;;;;;;12.60;40.00;99959.03;5080417;28;20040;-77
2022/04/29 08:22:20;;;;;;;5.05;1.58;;;;;;;12.41;40.80;99938.13;5064186;28;20138;-78
2022/04/29 08:24:48;;;;;;;1.30;1.20;;;;;;;12.60;40.54;99948.28;5062752;28;20042;-79
2022/04/29 08:27:14;;;;;;;1.80;1.40;;;;;;;12.67;40.41;99956.69;5096560;28;20056;-77
2022/04/29 08:29:40;;;;;;;3.03;1.15;;;;;;;12.75;39.68;99952.44;5096224;28;20039;-77
2022/04/29 08:32:07;;;;;;;6.20;1.50;;;;;;;12.76;40.08;99931.81;5079200;28;20109;-77
2022/04/29 08:34:37;;;;;;;2.58;1.33;;;;;;;12.85;38.66;99949.84;5096164;28;20063;-78
2022/04/29 08:37:04;;;;;;;1.70;1.38;;;;;;;13.07;38.65;99943.63;5079199;28;20088;-78
2022/04/29 08:39:34;;;;;;;1.92;1.40;;;;;;;13.33;38.54;99947.75;5079104;28;20115;-78
2022/04/29 08:42:02;;;;;;;3.30;1.70;;;;;;;13.64;38.18;99939.00;5096039;28;20046;-77
2022/04/29 08:44:30;;;;;;;1.65;1.50;;;;;;;13.73;38.11;99955.22;5075895;28;20043;-77
2022/04/29 08:47:16;;;;;;;6.57;1.40;;;;;;;13.36;38.90;99958.25;5093731;28;20052;-78
2022/04/29 08:50:13;;;;;;;5.85;1.63;;;;;;;13.43;38.11;99944.34;5067560;28;20044;-78
2022/04/29 08:52:39;;;;;;;1.40;1.30;;;;;;;13.50;38.64;99927.59;5059261;28;20052;-78
2022/04/29 09:00:41;;;;;;;3.22;2.22;;;;;;;13.79;35.87;99935.88;5094367;28;20054;-78
2022/04/29 09:03:20;;;;;;;3.80;1.33;;;;;;;14.01;37.15;99953.75;5093906;28;20499;-78
2022/04/29 09:05:47;;;;;;;3.63;1.33;;;;;;;13.99;37.48;99927.97;5075647;28;20035;-77
2022/04/29 09:08:18;;;;;;;1.00;1.00;;;;;;;13.88;37.50;99941.47;5042081;28;20051;-79
2022/04/29 09:10:56;;;;;;;3.20;1.30;;;;;;;13.97;36.36;99944.22;5058653;28;20109;-77
2022/04/29 09:13:25;;;;;;;3.25;1.13;;;;;;;14.44;36.35;99939.31;5042052;28;20047;-78
2022/04/29 09:16:06;;;;;;;4.85;1.77;;;;;;;14.52;35.49;99952.16;5031289;28;1278892;-77
2022/04/29 09:18:39;;;;;;;1.92;1.65;;;;;;;14.39;35.92;99935.31;5076418;28;20036;-78
2022/04/29 09:21:09;;;;;;;3.63;1.30;;;;;;;14.28;35.77;99949.69;5043000;28;20429;-76
2022/04/29 09:23:47;;;;;;;5.78;1.52;;;;;;;14.48;36.11;99923.75;5059667;28;20048;-77
2022/04/29 09:26:36;;;;;;;1.60;1.20;;;;;;;14.22;35.66;99940.31;5093186;28;20051;-78
2022/04/29 09:29:29;;;;;;;4.50;1.50;;;;;;;14.54;35.63;99944.78;5040288;28;20585;-78
2022/04/29 09:32:13;;;;;;;2.45;1.27;;;;;;;14.22;35.89;99961.84;5061808;28;20078;-78
2022/04/29 09:35:14;;;;;;;3.08;1.40;;;;;;;13.94;36.71;99930.19;4984056;28;20492;-77
2022/04/29 09:39:26;;;;;;;2.72;1.20;;;;;;;13.84;36.20;99947.13;5075449;28;20142;-78
2022/04/29 09:40:38;;;;;;;3.13;1.35;;;;;;;14.14;36.17;99923.13;5075789;28;20471;-78
2022/04/29 09:43:04;;;;;;;2.25;1.55;;;;;;;14.60;35.38;99933.50;5042548;28;20052;-78
2022/04/29 09:45:30;;;;;;;1.40;1.30;;;;;;;14.72;34.65;99935.09;5059064;28;20048;-77
2022/04/29 09:47:58;;;;;;;1.70;1.10;;;;;;;13.88;36.33;99944.16;5075497;28;20411;-77
2022/04/29 09:50:50;;;;;;;1.10;1.10;;;;;;;13.73;36.49;99943.63;5075733;28;20048;-78
2022/04/29 09:53:21;;;;;;;3.63;1.40;;;;;;;13.83;36.24;99931.94;5042508;28;20064;-78
2022/04/29 09:56:06;;;;;;;10.35;1.70;;;;;;;14.51;36.22;99931.59;5042037;28;20035;-79
2022/04/29 09:58:32;;;;;;;2.45;1.40;;;;;;;15.03;35.09;99929.69;5075199;28;20052;-77
2022/04/29 10:01:04;;;;;;;2.97;1.17;;;;;;;14.88;34.68;99936.44;5059040;28;20044;-79
2022/04/29 10:03:35;;;;;;;3.92;1.35;;;;;;;14.99;34.77;99939.03;5059853;28;20388;-77
2022/04/29 10:06:02;;;;;;;1.20;1.10;;;;;;;15.49;34.15;99922.84;5059369;28;20043;-78
2022/04/29 10:08:30;;;;;;;5.97;1.50;;;;;;;15.86;34.07;99914.09;5075943;28;20036;-78
2022/04/29 10:10:57;;;;;;;2.65;1.20;;;;;;;15.99;33.03;99926.28;5042325;28;20501;-77
2022/04/29 10:13:26;;;;;;;1.40;1.23;;;;;;;15.52;32.20;99927.94;5059232;28;20211;-78
2022/04/29 10:16:17;;;;;;;1.42;1.00;;;;;;;15.50;32.90;99921.88;5055949;28;20054;-78
2022/04/29 10:22:24;;;;;;;4.63;1.52;;;;;;;16.51;31.97;99928.59;5049046;28;20134;-78
2022/04/29 10:24:51;;;;;;;3.35;1.35;;;;;;;16.86;31.38;99929.81;5039722;28;20036;-78
2022/04/29 10:27:18;;;;;;;1.83;1.50;;;;;;;17.15;30.21;99927.81;5073179;28;20494;-78
2022/04/29 10:29:44;;;;;;;1.20;1.10;;;;;;;17.10;30.64;99924.69;5071727;28;20042;-78
2022/04/29 10:32:11;;;;;;;1.50;1.40;;;;;;;17.01;30.55;99933.72;5055332;28;20453;-79
2022/04/29 10:34:37;;;;;;;1.75;1.20;;;;;;;17.19;30.33;99915.69;5073749;28;20059;-77
2022/04/29 10:37:13;;;;;;;1.35;1.05;;;;;;;17.47;29.30;99926.47;5071759;28;20044;-79
2022/04/29 10:39:42;;;;;;;3.33;1.40;;;;;;;17.54;29.09;99903.22;5055097;28;20044;-78
2022/04/29 10:42:09;;;;;;;2.75;1.50;;;;;;;17.74;29.38;99914.72;5072407;28;20048;-79
2022/04/29 10:44:59;;;;;;;1.27;1.13;;;;;;;17.46;29.15;99922.06;5072064;28;20044;-78
2022/04/29 10:48:00;;;;;;;16.67;1.10;;;;;;;16.84;30.11;99929.09;5038695;28;20059;-78
2022/04/29 10:50:30;;;;;;;2.63;1.20;;;;;;;17.32;30.26;99919.88;5054239;28;20052;-79
2022/04/29 10:53:15;;;;;;;5.53;1.20;;;;;;;17.93;29.43;99911.88;5057573;28;20052;-78
2022/04/29 10:55:41;;;;;;;2.13;1.58;;;;;;;17.85;28.51;99908.28;5039086;28;20055;-78
2022/04/29 10:58:21;;;;;;;6.82;1.80;;;;;;;18.17;28.06;99922.09;5056784;28;20554;-78
2022/04/29 11:01:15;;;;;;;1.50;1.40;;;;;;;18.24;27.70;99907.91;5072949;28;20571;-78
2022/04/29 11:03:47;;;;;;;5.57;1.63;;;;;;;18.40;28.15;99908.03;5035082;28;20098;-78
2022/04/29 11:06:14;;;;;;;8.52;1.73;;;;;;;18.30;28.13;99908.13;5038466;28;20474;-78
2022/04/29 11:08:42;;;;;;;2.70;1.40;;;;;;;18.92;28.22;99899.88;5071620;28;20041;-77
2022/04/29 11:11:09;;;;;;;5.82;2.10;;;;;;;19.60;26.85;99905.16;5055195;28;20052;-77
2022/04/29 11:14:01;;;;;;;4.80;1.23;;;;;;;19.76;25.96;99906.22;5054934;28;20042;-79
2022/04/29 11:17:14;;;;;;;3.72;1.70;;;;;;;19.59;26.21;99902.59;5058101;28;20043;-78
2022/04/29 11:19:48;;;;;;;4.78;1.52;;;;;;;19.95;25.56;99905.03;5074831;28;20483;-77
2022/04/29 11:25:06;;;;;;;3.63;1.52;;;;;;;19.90;25.68;99902.84;5074579;28;20047;-79
2022/04/29 11:27:38;;;;;;;4.22;1.40;;;;;;;19.46;25.38;99905.81;5058905;28;20050;-79
2022/04/29 11:30:24;;;;;;;4.78;1.35;;;;;;;19.64;26.18;99900.28;5059740;28;20040;-79
2022/04/29 11:32:57;;;;;;;9.55;1.42;;;;;;;20.30;25.21;99898.41;5093651;28;20044;-78
2022/04/29 11:35:23;;;;;;;3.70;1.50;;;;;;;19.96;25.70;99918.44;5058085;28;20059;-78
2022/04/29 11:37:50;;;;;;;2.55;1.40;;;;;;;20.07;25.03;99888.25;5074143;28;20044;-76
2022/04/29 11:40:16;;;;;;;2.85;1.80;;;;;;;19.85;25.31;99916.06;5057517;28;20127;-79
2022/04/29 11:42:51;;;;;;;3.38;1.92;;;;;;;19.73;26.04;99895.69;5057512;28;20557;-80
2022/04/29 11:45:21;;;;;;;2.15;1.70;;;;;;;20.35;25.16;99885.16;5057224;28;20056;-79
2022/04/29 11:47:51;;;;;;;3.35;1.40;;;;;;;20.76;24.51;99909.53;5041419;28;20403;-80
2022/04/29 11:50:29;;;;;;;4.72;1.80;;;;;;;20.03;25.28;99903.16;5057646;28;20043;-78
2022/04/29 11:53:12;;;;;;;4.60;1.60;;;;;;;20.77;25.29;99892.22;5044551;28;20047;-78
2022/04/29 11:55:39;;;;;;;4.72;1.48;;;;;;;21.00;24.47;99895.84;5077947;28;20048;-79
2022/04/29 11:58:08;;;;;;;4.72;1.55;;;;;;;20.90;24.22;99889.78;5078027;28;20508;-79
2022/04/29 12:00:35;;;;;;;4.88;1.17;;;;;;;21.09;24.06;99894.78;5077793;28;20074;-80
2022/04/29 12:03:05;;;;;;;1.67;1.30;;;;;;;20.32;24.00;99888.22;5078143;28;20054;-79
2022/04/29 12:05:32;;;;;;;4.50;2.08;;;;;;;19.26;25.05;99907.97;5077753;28;20066;-79
2022/04/29 12:08:01;;;;;;;;;;;;;;;19.78;25.21;99891.47;5061907;28;20093;-76
2022/04/29 12:10:47;;;;;;;3.78;1.67;;;;;;;19.50;25.35;99888.19;5063546;28;19916;-78
2022/04/29 12:13:13;;;;;;;7.57;1.55;;;;;;;20.23;25.22;99886.53;5044050;28;20088;-79
2022/04/29 12:15:42;;;;;;;4.72;1.65;;;;;;;19.89;24.73;99882.13;5077617;28;20060;-79
2022/04/29 12:18:14;;;;;;;2.30;2.10;;;;;;;19.73;24.94;99882.13;5077230;28;20048;-80
2022/04/29 12:20:44;;;;;;;2.35;1.70;;;;;;;20.18;25.06;99883.50;5043971;28;20039;-80
2022/04/29 12:23:19;;;;;;;5.50;1.90;;;;;;;19.67;25.05;99894.53;5096023;28;20047;-79
2022/04/29 12:25:47;;;;;;;4.88;1.67;;;;;;;19.61;26.00;99887.88;5094965;28;20036;-78